Terminal Aerodrome Forecast
Issued by NWS Sioux Falls, SD

Home | Current Version | Previous Version | Graphics & Text | Print | Product List | Glossary On
Versions: 1 2 3 4 5 6 7 8 9 10 11 12 13 14
000
FTUS43 KFSD 231731
TAFFSD
TAF
KFSD 231731Z 2318/2418 21007KT P6SM BKN015
     FM231900 24008KT P6SM SCT035 BKN100
      TEMPO 2319/2321 BKN025
     FM240300 VRB03KT P6SM SCT150
     FM241500 15005KT P6SM SCT110=

USA.gov is the U.S. government's official web portal to all federal, state and local government web resources and services.